createdAt,value
2023-05-05T00:01:55.489Z,137.49
2023-05-05T00:04:22.255Z,133.86
2023-05-05T00:06:48.964Z,132.25
2023-05-05T00:09:15.496Z,136.16
2023-05-05T00:11:42.089Z,133.92
2023-05-05T00:14:08.598Z,128.96
2023-05-05T00:16:35.127Z,133.30
2023-05-05T00:19:01.686Z,131.48
2023-05-05T00:21:28.304Z,133.01
2023-05-05T00:23:54.838Z,129.08
2023-05-05T00:26:21.274Z,130.94
2023-05-05T00:28:47.803Z,125.77
2023-05-05T00:31:14.309Z,128.97
2023-05-05T00:33:40.872Z,125.56
2023-05-05T00:36:07.363Z,126.76
2023-05-05T00:38:33.886Z,124.01
2023-05-05T00:41:00.424Z,125.19
2023-05-05T00:43:27.014Z,124.75
2023-05-05T00:45:53.511Z,122.50
2023-05-05T00:48:19.935Z,123.37
2023-05-05T00:50:46.480Z,118.80
2023-05-05T00:53:13.082Z,120.44
2023-05-05T00:55:39.592Z,118.17
2023-05-05T00:58:06.130Z,117.88
2023-05-05T01:00:32.700Z,116.21
2023-05-05T01:02:59.300Z,118.49
2023-05-05T01:05:25.916Z,120.85
2023-05-05T01:07:52.472Z,118.68
2023-05-05T01:10:20.571Z,113.63
2023-05-05T01:12:47.462Z,111.78
2023-05-05T01:15:14.076Z,112.44
2023-05-05T01:17:40.675Z,114.45
2023-05-05T01:20:07.475Z,112.65
2023-05-05T01:22:34.131Z,113.47
2023-05-05T01:25:00.665Z,113.08
2023-05-05T01:27:27.146Z,106.89
2023-05-05T01:29:53.623Z,106.45
2023-05-05T01:32:20.160Z,110.27
2023-05-05T01:34:46.677Z,108.97
2023-05-05T01:37:13.238Z,109.10
2023-05-05T01:39:39.777Z,108.35
2023-05-05T01:42:06.355Z,109.60
2023-05-05T01:44:32.848Z,104.12
2023-05-05T01:46:59.379Z,106.91
2023-05-05T01:49:26.010Z,104.10
2023-05-05T01:51:52.472Z,102.56
2023-05-05T01:54:19.017Z,105.08
2023-05-05T01:56:45.669Z,98.94
2023-05-05T01:59:12.196Z,100.45
2023-05-05T02:01:38.891Z,102.96
2023-05-05T02:04:05.448Z,99.10
2023-05-05T02:06:32.027Z,101.44
2023-05-05T02:08:58.579Z,102.18
2023-05-05T02:11:25.136Z,96.91
2023-05-05T02:13:51.641Z,99.66
2023-05-05T02:16:18.270Z,98.38
2023-05-05T02:18:44.844Z,97.50
2023-05-05T02:21:11.357Z,96.57
2023-05-05T02:23:37.817Z,97.14
2023-05-05T02:26:04.400Z,91.70
2023-05-05T02:28:30.956Z,93.39
2023-05-05T02:30:57.643Z,95.03
2023-05-05T02:33:24.162Z,94.93
2023-05-05T02:35:50.718Z,95.54
2023-05-05T02:38:20.253Z,91.73
2023-05-05T02:40:46.718Z,93.21
2023-05-05T02:43:13.259Z,93.73
2023-05-05T02:45:42.489Z,91.76
2023-05-05T02:48:08.988Z,89.52
2023-05-05T02:50:35.517Z,90.09
2023-05-05T02:53:02.018Z,89.76
2023-05-05T02:55:28.499Z,88.15
2023-05-05T02:57:57.401Z,87.54
2023-05-05T03:00:23.848Z,89.63
2023-05-05T03:02:50.509Z,89.54
2023-05-05T03:05:17.054Z,80.65
2023-05-05T03:07:43.611Z,85.45
2023-05-05T03:10:10.343Z,84.46
2023-05-05T03:12:37.058Z,86.08
2023-05-05T03:15:03.687Z,84.10
2023-05-05T03:17:30.204Z,82.68
2023-05-05T03:19:56.677Z,81.98
2023-05-05T03:22:23.205Z,82.42
2023-05-05T03:24:49.675Z,82.00
2023-05-05T03:27:16.290Z,82.03
2023-05-05T03:29:42.894Z,82.19
2023-05-05T03:32:09.591Z,79.99
2023-05-05T03:34:36.165Z,79.40
2023-05-05T03:37:02.720Z,82.82
2023-05-05T03:39:29.130Z,80.73
2023-05-05T03:41:55.636Z,80.53
2023-05-05T03:44:22.207Z,78.43
2023-05-05T03:46:48.733Z,78.47
2023-05-05T03:49:15.157Z,78.24
2023-05-05T03:51:41.643Z,77.83
2023-05-05T03:54:08.153Z,76.42
2023-05-05T03:56:34.658Z,78.63
2023-05-05T03:59:01.122Z,75.74
2023-05-05T04:01:27.531Z,75.68
2023-05-05T04:03:54.094Z,76.40
2023-05-05T04:06:20.669Z,74.84
2023-05-05T04:08:47.252Z,75.35
2023-05-05T04:11:13.747Z,73.38
2023-05-05T04:13:40.356Z,70.64
2023-05-05T04:16:06.902Z,70.91
2023-05-05T04:18:33.446Z,74.54
2023-05-05T04:20:59.952Z,70.47
2023-05-05T04:23:26.484Z,68.63
2023-05-05T04:25:53.033Z,69.80
2023-05-05T04:28:21.636Z,69.65
2023-05-05T04:30:48.700Z,69.62
2023-05-05T04:33:15.254Z,67.10
2023-05-05T04:35:41.761Z,67.89
2023-05-05T04:38:08.167Z,64.73
2023-05-05T04:40:34.707Z,66.43
2023-05-05T04:43:01.159Z,63.97
2023-05-05T04:45:27.717Z,61.94
2023-05-05T04:47:54.217Z,63.92
2023-05-05T04:50:20.837Z,63.18
2023-05-05T04:52:47.390Z,71.77
2023-05-05T04:55:13.890Z,68.95
2023-05-05T04:57:40.370Z,69.01
2023-05-05T05:00:07.096Z,70.80
2023-05-05T05:02:34.034Z,69.00
2023-05-05T05:05:00.682Z,71.52
2023-05-05T05:07:27.298Z,69.31
2023-05-05T05:09:53.859Z,71.30
2023-05-05T05:12:20.344Z,70.03
2023-05-05T05:14:46.827Z,68.10
2023-05-05T05:17:13.294Z,70.01
2023-05-05T05:19:39.726Z,69.15
2023-05-05T05:22:06.173Z,67.41
2023-05-05T05:24:32.644Z,70.97
2023-05-05T05:27:02.213Z,69.53
2023-05-05T05:29:28.720Z,67.18
2023-05-05T05:31:55.253Z,65.62
2023-05-05T05:34:21.932Z,66.16
2023-05-05T05:36:48.470Z,62.67
2023-05-05T05:39:14.996Z,62.32
2023-05-05T05:41:41.478Z,59.57
2023-05-05T05:44:08.072Z,60.85
2023-05-05T05:46:34.557Z,58.44
2023-05-05T05:49:04.065Z,60.97
2023-05-05T05:51:30.555Z,59.75
2023-05-05T05:53:58.716Z,59.27
2023-05-05T05:56:25.534Z,60.80
2023-05-05T07:24:06.674Z,48.77
2023-05-05T07:26:35.954Z,47.91
2023-05-05T07:29:02.481Z,47.91
2023-05-05T07:31:29.158Z,48.77
2023-05-05T07:33:58.549Z,46.07
2023-05-05T07:36:24.999Z,48.09
2023-05-05T07:38:51.604Z,51.95
2023-05-05T07:41:18.156Z,50.56
2023-05-05T07:43:44.816Z,49.27
2023-05-05T07:46:11.487Z,48.30
2023-05-05T07:48:38.128Z,48.40
2023-05-05T07:51:04.555Z,47.73
2023-05-05T07:53:31.079Z,46.97
2023-05-05T07:55:57.715Z,48.91
2023-05-05T07:58:24.181Z,48.18
2023-05-05T08:00:50.717Z,46.96
2023-05-05T08:03:17.279Z,46.94
2023-05-05T08:05:43.854Z,49.02
2023-05-05T08:08:10.362Z,44.60
2023-05-05T08:10:36.954Z,47.02
2023-05-05T08:13:03.455Z,46.13
2023-05-05T08:15:32.792Z,46.25
2023-05-05T08:17:59.337Z,47.08
2023-05-05T08:20:25.764Z,46.01
2023-05-05T08:22:52.267Z,45.92
2023-05-05T08:25:18.771Z,46.24
2023-05-05T08:27:45.298Z,44.22
2023-05-05T08:30:11.859Z,43.89
2023-05-05T08:32:38.466Z,42.10
2023-05-05T08:35:05.194Z,43.10
2023-05-05T08:37:31.734Z,42.38
2023-05-05T08:39:58.236Z,45.25
2023-05-05T08:42:36.229Z,43.80
2023-05-05T08:45:04.034Z,44.28
2023-05-05T08:47:30.496Z,43.32
2023-05-05T08:49:57.204Z,42.84
2023-05-05T08:52:23.715Z,43.84
2023-05-05T08:54:50.330Z,43.10
2023-05-05T08:57:16.795Z,44.20
2023-05-05T08:59:43.272Z,41.55
2023-05-05T09:02:09.907Z,42.81
2023-05-05T09:04:36.439Z,40.64
2023-05-05T09:07:02.862Z,40.52
2023-05-05T09:09:29.369Z,42.06
2023-05-05T09:11:55.994Z,39.42
2023-05-05T09:14:22.474Z,42.75
2023-05-05T09:16:48.995Z,41.47
2023-05-05T09:19:15.443Z,41.22
2023-05-05T09:21:41.984Z,42.38
2023-05-05T09:24:09.316Z,41.10
2023-05-05T09:26:36.064Z,39.30
2023-05-05T09:29:02.697Z,37.94
2023-05-05T09:31:29.272Z,39.24
2023-05-05T09:33:55.776Z,42.18
2023-05-05T09:36:22.312Z,40.71
2023-05-05T09:38:48.776Z,39.05
2023-05-05T09:41:15.272Z,38.64
2023-05-05T09:43:42.007Z,39.36
2023-05-05T09:46:08.552Z,38.77
2023-05-05T09:48:35.174Z,39.45
2023-05-05T09:51:01.718Z,38.46
2023-05-05T09:53:28.281Z,39.57
2023-05-05T09:55:54.730Z,38.72
2023-05-05T09:58:21.308Z,37.27
2023-05-05T10:00:47.902Z,37.94
2023-05-05T10:03:14.463Z,37.24
2023-05-05T10:05:40.983Z,37.35
2023-05-05T10:08:10.316Z,36.25
2023-05-05T10:10:36.770Z,38.16
2023-05-05T10:13:03.307Z,36.24
2023-05-05T10:15:29.809Z,35.50
2023-05-05T10:18:06.659Z,34.59
2023-05-05T10:20:33.812Z,35.12
2023-05-05T10:23:00.266Z,35.08
2023-05-05T10:25:26.777Z,35.69
2023-05-05T10:27:53.300Z,34.87
2023-05-05T10:30:19.755Z,32.52
2023-05-05T10:32:59.318Z,33.02
2023-05-05T10:35:30.800Z,35.82
2023-05-05T10:37:57.310Z,35.40
2023-05-05T10:40:23.747Z,33.36
2023-05-05T10:42:50.274Z,33.36
2023-05-05T10:45:16.779Z,32.58
2023-05-05T10:47:43.398Z,32.12
2023-05-05T10:50:10.102Z,31.77
2023-05-05T10:52:36.744Z,31.29
2023-05-05T10:55:03.214Z,31.99
2023-05-05T10:57:29.716Z,32.62
2023-05-05T10:59:56.233Z,30.38
2023-05-05T11:02:22.763Z,31.83
2023-05-05T11:04:49.336Z,33.36
2023-05-05T11:07:15.850Z,30.31
2023-05-05T11:09:42.313Z,31.72
2023-05-05T11:12:08.866Z,30.00
2023-05-05T14:13:23.954Z,23.13
2023-05-05T14:15:50.444Z,23.76
2023-05-05T14:18:17.022Z,24.80
2023-05-05T14:20:43.494Z,21.85
2023-05-05T14:23:10.065Z,24.49
2023-05-05T14:25:36.570Z,22.56
2023-05-05T14:28:03.064Z,23.09
2023-05-05T14:30:29.631Z,24.47
2023-05-05T14:32:56.130Z,25.43
2023-05-05T14:35:22.638Z,23.92
2023-05-05T14:37:49.120Z,24.10
2023-05-05T14:40:15.632Z,25.13
2023-05-05T14:42:42.102Z,23.84
2023-05-05T14:45:08.681Z,25.42
2023-05-05T14:47:35.247Z,23.99
2023-05-05T14:50:01.720Z,23.74
2023-05-05T14:52:28.203Z,22.49
2023-05-05T14:54:54.617Z,22.26
2023-05-05T14:57:21.121Z,23.16
2023-05-05T14:59:47.621Z,22.64
2023-05-05T15:02:14.026Z,22.68
2023-05-05T15:04:40.523Z,23.49
2023-05-05T15:07:07.001Z,21.48
2023-05-05T15:09:33.436Z,21.47
2023-05-05T15:11:59.914Z,21.49
2023-05-05T15:14:26.461Z,21.14
2023-05-05T15:16:52.895Z,19.88
2023-05-05T15:19:19.310Z,19.08
2023-05-05T15:21:45.777Z,21.43
2023-05-05T15:24:12.362Z,19.57
2023-05-05T15:26:38.880Z,18.84
2023-05-05T15:29:05.412Z,20.00
2023-05-05T15:31:31.941Z,18.83
2023-05-05T15:33:58.396Z,21.62
2023-05-05T15:36:24.840Z,19.72
2023-05-05T15:38:51.313Z,18.73
2023-05-05T15:41:17.825Z,19.70
2023-05-05T15:43:44.241Z,19.69
2023-05-05T15:46:10.717Z,18.32
2023-05-05T15:48:37.208Z,19.19
2023-05-05T15:51:03.705Z,20.13
2023-05-05T15:53:30.188Z,19.54
2023-05-05T15:55:56.675Z,21.33
2023-05-05T15:58:23.129Z,20.63
2023-05-05T16:00:49.571Z,20.65
2023-05-05T16:03:16.052Z,22.05
2023-05-05T16:05:42.612Z,21.00
2023-05-05T16:08:09.099Z,21.49
2023-05-05T16:10:35.628Z,23.94
2023-05-05T16:13:02.141Z,21.40
2023-05-05T16:15:28.730Z,22.06
2023-05-05T16:17:55.233Z,21.11
2023-05-05T16:20:21.806Z,21.98
2023-05-05T16:22:48.259Z,21.59
2023-05-05T16:25:14.850Z,21.69
2023-05-05T16:27:41.402Z,23.08
2023-05-05T16:30:07.898Z,23.67
2023-05-05T16:32:34.385Z,22.67
2023-05-05T16:35:00.880Z,22.26
2023-05-05T16:37:27.416Z,21.85
2023-05-05T16:39:53.957Z,20.14
2023-05-05T16:42:20.433Z,21.49
2023-05-05T16:44:46.881Z,23.03
2023-05-05T16:47:13.435Z,24.54
2023-05-05T16:49:39.913Z,22.82
2023-05-05T16:52:06.396Z,22.77
2023-05-05T16:54:32.918Z,22.16
2023-05-05T16:56:59.378Z,23.84
2023-05-05T16:59:25.821Z,31.65
2023-05-05T17:01:52.387Z,36.93
2023-05-05T17:04:18.937Z,36.49
2023-05-05T17:06:45.373Z,41.56
2023-05-05T17:09:11.882Z,44.60
2023-05-05T17:11:38.353Z,46.13
2023-05-05T17:14:04.929Z,42.74
2023-05-05T17:16:31.553Z,41.37
2023-05-05T17:18:58.125Z,44.20
2023-05-05T17:21:24.606Z,44.14
2023-05-05T17:23:53.804Z,43.87
2023-05-05T17:26:20.317Z,44.85
2023-05-05T17:28:46.858Z,43.57
2023-05-05T17:31:13.371Z,40.36
2023-05-05T17:33:39.897Z,41.09
2023-05-05T17:36:06.389Z,41.02
2023-05-05T17:38:32.913Z,41.47
2023-05-05T17:40:59.437Z,40.70
2023-05-05T17:43:25.930Z,41.62
2023-05-05T17:45:52.369Z,40.15
2023-05-05T17:48:18.967Z,45.23
2023-05-05T17:50:45.489Z,48.51
2023-05-05T17:53:12.043Z,50.58
2023-05-05T17:55:38.530Z,46.01
2023-05-05T17:58:05.063Z,44.91
2023-05-05T18:00:31.491Z,46.39
2023-05-05T18:02:58.119Z,47.39
2023-05-05T18:05:24.693Z,46.95
2023-05-05T18:07:51.268Z,49.24
2023-05-05T18:10:17.766Z,46.93
2023-05-05T18:12:44.236Z,46.58
2023-05-05T18:15:10.922Z,47.18
2023-05-05T18:17:37.759Z,46.85
2023-05-05T18:20:04.210Z,41.87
2023-05-05T18:22:33.492Z,41.53
2023-05-05T18:25:00.011Z,88.02
2023-05-05T18:27:26.551Z,156.99
2023-05-05T18:29:53.098Z,151.74
2023-05-05T18:32:19.639Z,166.78
2023-05-05T18:34:46.120Z,200.11
2023-05-05T18:37:12.614Z,215.05
2023-05-05T18:39:39.095Z,213.71
2023-05-05T18:42:05.602Z,224.85
2023-05-05T18:44:32.169Z,224.45
2023-05-05T18:46:58.865Z,218.76
2023-05-05T18:49:25.398Z,215.83
2023-05-05T18:51:51.917Z,214.60
2023-05-05T18:54:18.507Z,218.00
2023-05-05T18:56:45.110Z,214.84
2023-05-05T18:59:11.715Z,209.62
2023-05-05T19:01:38.279Z,200.67
2023-05-05T19:04:08.421Z,204.47
2023-05-05T19:06:39.418Z,211.22
2023-05-05T19:09:05.906Z,215.86
2023-05-05T19:11:32.417Z,202.51
2023-05-05T19:13:58.984Z,203.90
2023-05-05T19:16:26.223Z,207.12
2023-05-05T19:18:53.603Z,207.27
2023-05-05T19:21:20.158Z,197.78
2023-05-05T19:23:46.759Z,198.52
2023-05-05T19:26:13.299Z,196.18
